Time;durP1;ratioP1;P1;durP2;ratioP2;P2;SDS_P1;SDS_P2;PMS_P1;PMS_P2;Temp;Humidity;BMP_temperature;BMP_pressure;BME280_temperature;BME280_humidity;BME280_pressure;Samples;Min_cycle;Max_cycle;Signal;HPM_P1;HPM_P2
2021/06/06 00:00:52;;;;;;;10.70;2.90;;;24.60;40.00;;;;;;5070729;28;20033;-77
2021/06/06 00:03:25;;;;;;;12.63;1.98;;;24.40;40.40;;;;;;5074816;28;20410;-78
2021/06/06 00:05:58;;;;;;;15.40;2.38;;;24.30;40.20;;;;;;5077187;28;20480;-77
2021/06/06 00:08:27;;;;;;;12.63;3.45;;;24.00;40.90;;;;;;5077434;28;20070;-77
2021/06/06 00:10:58;;;;;;;12.13;3.33;;;23.90;41.60;;;;;;5077404;28;20017;-79
2021/06/06 00:13:24;;;;;;;10.00;2.92;;;23.80;42.10;;;;;;5077294;28;20387;-78
2021/06/06 00:15:51;;;;;;;13.43;3.78;;;23.60;42.40;;;;;;5077114;28;20021;-76
2021/06/06 00:18:18;;;;;;;11.10;1.80;;;23.60;42.60;;;;;;5050396;28;20460;-77
2021/06/06 00:20:45;;;;;;;18.30;2.65;;;23.60;42.10;;;;;;5057129;28;20041;-78
2021/06/06 00:23:11;;;;;;;13.52;2.95;;;23.50;42.50;;;;;;5057140;28;20025;-77
2021/06/06 00:25:39;;;;;;;18.65;2.53;;;23.40;42.80;;;;;;5039310;28;20025;-76
2021/06/06 00:28:06;;;;;;;7.25;1.80;;;23.40;42.80;;;;;;5057070;28;20029;-78
2021/06/06 00:30:34;;;;;;;11.55;3.05;;;23.50;42.80;;;;;;5057138;28;20326;-76
2021/06/06 00:33:01;;;;;;;9.52;2.55;;;23.50;42.70;;;;;;5056803;28;20027;-77
2021/06/06 00:35:27;;;;;;;16.45;3.65;;;23.40;43.10;;;;;;5056863;28;20492;-77
2021/06/06 00:37:54;;;;;;;16.33;2.45;;;23.50;43.20;;;;;;5056844;28;20334;-77
2021/06/06 00:40:26;;;;;;;21.88;4.68;;;23.60;43.20;;;;;;5056905;28;20086;-78
2021/06/06 00:42:52;;;;;;;;;;;23.70;43.40;;;;;;5039665;28;20029;-78
2021/06/06 00:45:22;;;;;;;9.77;2.72;;;23.70;43.30;;;;;;5056713;28;20398;-78
2021/06/06 00:47:49;;;;;;;9.75;2.55;;;23.70;43.40;;;;;;5056403;28;20474;-78
2021/06/06 00:50:24;;;;;;;12.52;3.50;;;23.80;43.20;;;;;;5056929;28;20075;-78
2021/06/06 00:52:53;;;;;;;16.98;5.05;;;23.70;43.00;;;;;;5056674;28;20089;-78
2021/06/06 00:55:20;;;;;;;19.10;3.55;;;23.70;43.10;;;;;;5056544;28;20021;-77
2021/06/06 00:57:48;;;;;;;14.00;3.70;;;23.60;43.40;;;;;;5038841;28;20029;-78
2021/06/06 01:00:28;;;;;;;17.77;2.63;;;23.40;43.70;;;;;;5038946;28;20032;-78
2021/06/06 01:02:54;;;;;;;18.85;3.10;;;23.30;44.60;;;;;;5056220;28;20036;-77
2021/06/06 01:05:27;;;;;;;16.38;3.75;;;23.20;44.10;;;;;;5055790;28;20029;-77
2021/06/06 01:07:53;;;;;;;;;;;23.10;44.10;;;;;;5056447;28;20078;-78
2021/06/06 01:10:20;;;;;;;12.35;2.83;;;23.00;44.50;;;;;;5056293;28;19959;-77
2021/06/06 01:12:57;;;;;;;12.02;3.65;;;22.90;44.60;;;;;;5038735;28;20048;-79
2021/06/06 01:15:31;;;;;;;11.18;3.28;;;22.80;45.00;;;;;;5056384;28;20096;-77
2021/06/06 01:18:09;;;;;;;11.95;2.80;;;22.80;45.40;;;;;;5056104;28;20499;-78
2021/06/06 01:20:54;;;;;;;12.43;2.78;;;22.90;44.90;;;;;;5056435;28;20123;-77
2021/06/06 01:23:51;;;;;;;13.30;5.30;;;22.90;44.80;;;;;;5074990;28;20043;-78
2021/06/06 01:26:34;;;;;;;11.73;4.38;;;22.80;44.70;;;;;;5096086;28;20032;-77
2021/06/06 01:29:28;;;;;;;28.70;10.20;;;22.80;45.00;;;;;;5096163;28;20048;-77
2021/06/06 01:31:59;;;;;;;16.73;4.05;;;22.80;44.90;;;;;;5096194;28;20396;-79
2021/06/06 01:34:28;;;;;;;17.35;3.92;;;22.60;45.10;;;;;;5078230;28;20030;-77
2021/06/06 01:37:17;;;;;;;13.20;5.13;;;22.70;45.00;;;;;;5095838;28;20020;-78
2021/06/06 01:39:52;;;;;;;16.20;3.55;;;22.50;45.40;;;;;;5096022;28;20016;-78
2021/06/06 01:42:48;;;;;;;14.82;7.50;;;22.40;45.20;;;;;;5095989;28;20104;-77
2021/06/06 01:45:23;;;;;;;26.05;3.80;;;22.30;45.50;;;;;;5091041;28;20349;-78
2021/06/06 01:47:51;;;;;;;13.27;3.70;;;22.20;45.50;;;;;;5077557;28;20420;-77
2021/06/06 01:50:47;;;;;;;13.02;4.40;;;22.20;45.70;;;;;;5095483;28;20016;-76
2021/06/06 01:53:15;;;;;;;12.18;3.90;;;22.00;46.00;;;;;;5074954;28;20362;-77
2021/06/06 01:55:48;;;;;;;18.42;3.42;;;21.80;46.20;;;;;;5095823;28;20020;-78
2021/06/06 01:58:16;;;;;;;14.98;4.28;;;21.70;46.50;;;;;;5095696;28;20020;-78
2021/06/06 02:00:48;;;;;;;18.25;3.67;;;21.50;46.80;;;;;;5095673;28;20115;-78
2021/06/06 02:03:15;;;;;;;11.40;2.67;;;21.50;46.80;;;;;;5095618;28;20388;-78
2021/06/06 02:05:42;;;;;;;16.98;3.15;;;21.40;46.90;;;;;;5095535;28;20020;-77
2021/06/06 02:08:13;;;;;;;11.32;4.03;;;21.30;47.00;;;;;;5077461;28;20059;-77
2021/06/06 02:10:42;;;;;;;13.63;3.17;;;21.00;48.10;;;;;;5095461;28;20016;-76
2021/06/06 02:13:25;;;;;;;17.92;3.92;;;21.00;47.60;;;;;;5077535;28;20443;-77
2021/06/06 02:15:57;;;;;;;16.23;2.90;;;21.00;48.00;;;;;;5095326;28;20401;-77
2021/06/06 02:18:25;;;;;;;12.68;2.60;;;21.00;47.80;;;;;;5075687;28;20104;-77
2021/06/06 02:20:52;;;;;;;13.55;3.28;;;20.80;48.10;;;;;;5055092;28;20037;-75
2021/06/06 02:23:23;;;;;;;9.60;3.40;;;20.80;48.20;;;;;;5044056;28;20399;-76
2021/06/06 02:26:12;;;;;;;20.30;4.97;;;20.80;48.20;;;;;;5057844;28;20025;-77
2021/06/06 02:29:00;;;;;;;13.55;2.88;;;20.60;48.00;;;;;;5056925;28;20072;-76
2021/06/06 02:32:14;;;;;;;13.50;3.58;;;20.60;48.00;;;;;;5055594;28;20448;-76
2021/06/06 02:35:18;;;;;;;18.58;3.00;;;20.50;48.50;;;;;;5023791;28;20033;-76
2021/06/06 02:37:54;;;;;;;16.90;3.28;;;20.40;48.90;;;;;;5053702;28;20032;-76
2021/06/06 02:40:26;;;;;;;12.68;3.72;;;20.30;48.70;;;;;;5054819;28;20091;-77
2021/06/06 02:42:56;;;;;;;10.23;3.00;;;20.30;48.50;;;;;;5054952;28;20024;-77
2021/06/06 02:45:29;;;;;;;14.75;2.83;;;20.20;48.60;;;;;;5054702;28;20053;-77
2021/06/06 02:48:03;;;;;;;14.20;3.67;;;20.20;49.10;;;;;;5054443;28;20021;-76
2021/06/06 02:50:34;;;;;;;11.02;2.97;;;20.10;48.60;;;;;;5064361;28;20444;-76
2021/06/06 02:53:32;;;;;;;10.93;3.05;;;20.00;49.30;;;;;;5074656;28;20049;-77
2021/06/06 02:56:14;;;;;;;20.23;4.10;;;19.80;49.30;;;;;;5043684;28;20494;-76
2021/06/06 02:59:11;;;;;;;16.55;4.72;;;19.80;49.60;;;;;;5074818;28;20074;-76
2021/06/06 03:01:48;;;;;;;12.50;4.15;;;19.50;50.00;;;;;;5073204;28;20029;-76
2021/06/06 03:04:22;;;;;;;12.05;3.35;;;19.40;50.30;;;;;;5074604;28;20109;-76
2021/06/06 03:07:10;;;;;;;9.82;3.15;;;19.40;50.20;;;;;;5056873;28;20360;-76
2021/06/06 03:09:36;;;;;;;12.90;3.60;;;19.30;50.20;;;;;;5074369;28;20124;-76
2021/06/06 03:12:08;;;;;;;14.73;3.85;;;19.20;50.80;;;;;;5074365;28;20017;-76
2021/06/06 03:14:38;;;;;;;13.15;3.72;;;19.10;50.60;;;;;;5074569;28;20330;-76
2021/06/06 03:17:12;;;;;;;10.07;2.78;;;19.00;51.10;;;;;;5056904;28;20021;-76
2021/06/06 03:19:47;;;;;;;8.55;3.05;;;18.90;51.10;;;;;;5074045;28;20108;-75
2021/06/06 03:22:19;;;;;;;14.18;4.18;;;18.90;51.00;;;;;;5073851;28;20020;-76
2021/06/06 03:24:48;;;;;;;9.95;3.03;;;18.80;51.20;;;;;;5074416;28;20055;-75
2021/06/06 03:27:16;;;;;;;26.10;3.75;;;18.70;51.40;;;;;;5075658;28;20398;-75
2021/06/06 03:30:01;;;;;;;16.88;4.43;;;18.60;51.50;;;;;;5060591;28;20024;-75
2021/06/06 03:32:33;;;;;;;16.17;3.20;;;18.60;51.80;;;;;;5078340;28;20073;-76
2021/06/06 03:34:59;;;;;;;13.60;4.05;;;18.50;52.10;;;;;;5078383;28;20025;-75
2021/06/06 03:37:26;;;;;;;17.13;3.70;;;18.40;52.10;;;;;;5078245;28;20028;-76
2021/06/06 03:39:54;;;;;;;18.05;2.67;;;18.30;51.80;;;;;;5077976;28;20016;-75
2021/06/06 03:42:21;;;;;;;9.45;2.85;;;18.20;52.10;;;;;;5060448;28;20111;-75
2021/06/06 03:44:47;;;;;;;12.27;2.88;;;18.20;52.70;;;;;;5078127;28;20020;-75
2021/06/06 03:47:13;;;;;;;24.30;4.85;;;18.00;52.30;;;;;;5077992;28;20348;-76
2021/06/06 03:49:40;;;;;;;19.23;3.97;;;18.10;52.10;;;;;;5058221;28;20048;-76
2021/06/06 03:52:08;;;;;;;13.40;3.08;;;18.00;52.20;;;;;;5069000;28;20029;-76
2021/06/06 03:54:35;;;;;;;12.65;3.38;;;18.00;52.30;;;;;;5074556;28;20013;-78
2021/06/06 03:57:01;;;;;;;17.27;4.95;;;18.00;52.20;;;;;;5077308;28;20021;-77
2021/06/06 03:59:28;;;;;;;20.08;3.50;;;17.80;52.60;;;;;;5077427;28;20051;-76
2021/06/06 04:01:54;;;;;;;16.58;3.15;;;17.90;52.40;;;;;;5077528;28;20031;-76
2021/06/06 04:04:21;;;;;;;10.73;2.72;;;18.00;52.70;;;;;;5059906;28;20025;-75
2021/06/06 04:06:48;;;;;;;20.65;2.80;;;18.10;52.40;;;;;;5077405;28;20032;-76
2021/06/06 04:09:14;;;;;;;13.90;3.10;;;18.00;52.70;;;;;;5077174;28;20119;-75
2021/06/06 04:11:41;;;;;;;20.50;3.97;;;18.00;52.60;;;;;;5077335;28;20029;-75
2021/06/06 04:14:09;;;;;;;16.52;2.80;;;17.90;53.20;;;;;;5076326;28;20023;-76
2021/06/06 04:16:36;;;;;;;16.88;3.50;;;17.80;53.00;;;;;;5040937;28;20059;-76
2021/06/06 04:19:05;;;;;;;19.80;4.07;;;17.60;53.20;;;;;;5054527;28;20033;-75
2021/06/06 04:21:33;;;;;;;21.92;4.82;;;17.70;54.10;;;;;;5077046;28;20032;-75
2021/06/06 04:24:00;;;;;;;22.83;5.13;;;17.70;53.90;;;;;;5076977;28;20467;-76
2021/06/06 04:26:27;;;;;;;10.63;3.15;;;17.60;53.80;;;;;;5059020;28;20032;-76
2021/06/06 04:28:54;;;;;;;21.83;4.18;;;17.50;53.80;;;;;;5077030;28;20130;-76
2021/06/06 04:31:21;;;;;;;13.07;3.10;;;17.50;54.40;;;;;;5077030;28;20017;-76
2021/06/06 04:33:48;;;;;;;18.00;3.58;;;17.30;54.30;;;;;;5056302;28;20356;-77
2021/06/06 04:36:14;;;;;;;16.55;3.55;;;17.30;54.30;;;;;;5057164;28;20359;-77
2021/06/06 04:38:41;;;;;;;28.50;4.20;;;17.30;54.50;;;;;;5055456;28;20025;-77
2021/06/06 04:41:12;;;;;;;22.05;4.75;;;17.30;55.00;;;;;;5056768;28;20036;-77
2021/06/06 04:43:39;;;;;;;20.20;4.00;;;17.30;55.00;;;;;;5056953;28;20028;-77
2021/06/06 04:46:06;;;;;;;15.88;4.20;;;17.30;55.00;;;;;;5056865;28;20059;-76
2021/06/06 04:48:43;;;;;;;17.65;3.58;;;17.30;55.20;;;;;;5039088;28;20025;-76
2021/06/06 04:51:19;;;;;;;21.15;4.97;;;17.20;54.80;;;;;;5039181;28;20028;-77
2021/06/06 04:53:50;;;;;;;18.67;3.65;;;17.00;54.50;;;;;;5056743;28;20039;-76
2021/06/06 04:56:19;;;;;;;15.70;3.53;;;17.00;55.00;;;;;;5057043;28;20389;-75
2021/06/06 04:58:45;;;;;;;8.38;3.20;;;17.20;55.70;;;;;;5049595;28;20028;-76
2021/06/06 05:01:13;;;;;;;18.77;4.80;;;17.20;55.30;;;;;;5075175;28;20047;-76
2021/06/06 05:03:40;;;;;;;16.02;3.38;;;17.20;54.90;;;;;;5058376;28;20086;-76
2021/06/06 05:06:07;;;;;;;18.25;4.13;;;17.20;55.30;;;;;;5076426;28;20038;-76
2021/06/06 05:08:34;;;;;;;13.57;4.63;;;17.30;55.40;;;;;;5076545;28;20355;-77
2021/06/06 05:11:00;;;;;;;15.38;3.80;;;17.30;55.80;;;;;;5076257;28;20028;-75
2021/06/06 05:13:27;;;;;;;14.15;3.85;;;17.20;55.60;;;;;;5076336;28;20066;-76
2021/06/06 05:15:55;;;;;;;21.90;4.25;;;17.20;54.90;;;;;;5076182;28;20452;-76
2021/06/06 05:18:22;;;;;;;13.65;3.22;;;17.20;55.60;;;;;;5076514;28;20028;-76
2021/06/06 05:20:51;;;;;;;12.48;4.30;;;16.90;55.30;;;;;;5058047;28;20123;-76
2021/06/06 05:23:19;;;;;;;21.05;3.63;;;16.70;56.00;;;;;;5075613;28;20039;-76
2021/06/06 05:25:46;;;;;;;21.15;4.82;;;16.80;57.00;;;;;;5075917;28;20052;-76
2021/06/06 05:28:17;;;;;;;18.25;4.45;;;16.80;55.80;;;;;;5042077;28;20513;-76
2021/06/06 05:30:44;;;;;;;23.17;4.35;;;16.90;56.10;;;;;;5076189;28;20087;-76
2021/06/06 05:33:12;;;;;;;39.38;6.25;;;16.70;56.30;;;;;;5058161;28;20031;-76
2021/06/06 05:35:39;;;;;;;16.83;5.50;;;16.80;56.10;;;;;;5075902;28;20027;-76
2021/06/06 05:38:09;;;;;;;22.85;4.75;;;16.90;56.50;;;;;;5075703;28;20107;-76
2021/06/06 05:40:37;;;;;;;21.70;3.83;;;17.00;56.10;;;;;;5075669;28;20039;-76
2021/06/06 05:43:05;;;;;;;22.60;3.72;;;16.90;55.70;;;;;;5075724;28;20035;-76
2021/06/06 05:45:32;;;;;;;17.60;4.85;;;16.90;56.20;;;;;;5058052;28;20024;-76
2021/06/06 05:47:59;;;;;;;23.35;6.18;;;16.90;56.60;;;;;;5075354;28;20032;-76
2021/06/06 05:50:29;;;;;;;22.23;6.22;;;16.90;56.60;;;;;;5057626;28;20024;-76
2021/06/06 05:52:56;;;;;;;16.77;3.17;;;16.80;56.20;;;;;;5075470;28;20028;-77
2021/06/06 05:55:23;;;;;;;23.75;5.47;;;16.80;56.90;;;;;;5075678;28;20028;-78
2021/06/06 05:57:50;;;;;;;17.25;3.88;;;16.80;56.60;;;;;;5054308;28;20035;-76
2021/06/06 06:00:23;;;;;;;16.80;4.05;;;16.70;56.80;;;;;;5055343;28;20400;-76
2021/06/06 06:02:49;;;;;;;24.00;5.43;;;16.70;56.90;;;;;;5055319;28;20445;-76
2021/06/06 06:05:16;;;;;;;19.85;3.63;;;16.50;57.20;;;;;;5055336;28;20063;-76
2021/06/06 06:07:43;;;;;;;23.90;4.72;;;16.50;57.00;;;;;;5055321;28;20064;-76
2021/06/06 06:10:14;;;;;;;20.65;3.30;;;16.50;56.70;;;;;;5055167;28;20080;-75
2021/06/06 06:12:40;;;;;;;21.73;3.63;;;16.50;56.90;;;;;;5055143;28;20021;-76
2021/06/06 06:15:08;;;;;;;13.77;3.55;;;16.50;57.60;;;;;;5055051;28;20361;-76
2021/06/06 06:17:35;;;;;;;24.98;5.85;;;16.40;57.30;;;;;;5055066;28;20017;-76
2021/06/06 06:20:11;;;;;;;18.35;4.30;;;16.40;57.20;;;;;;5054845;28;20029;-76
2021/06/06 06:22:37;;;;;;;11.32;3.78;;;16.40;57.50;;;;;;5055160;28;20016;-76
2021/06/06 06:25:07;;;;;;;10.25;3.78;;;16.50;57.80;;;;;;5037308;28;20021;-76
2021/06/06 06:27:34;;;;;;;25.33;4.68;;;16.70;58.00;;;;;;5055031;28;20100;-76
2021/06/06 06:30:03;;;;;;;24.27;5.18;;;16.60;56.90;;;;;;5054824;28;20045;-76
2021/06/06 06:32:30;;;;;;;16.02;3.67;;;16.30;57.20;;;;;;5037182;28;20085;-76
2021/06/06 06:34:56;;;;;;;17.38;3.92;;;16.30;57.90;;;;;;5054846;28;20032;-76
2021/06/06 06:37:25;;;;;;;20.55;5.40;;;16.40;58.00;;;;;;5054820;28;20361;-75
2021/06/06 06:39:52;;;;;;;17.77;4.80;;;16.50;57.40;;;;;;5066006;28;20514;-75
2021/06/06 06:42:18;;;;;;;28.20;5.55;;;16.40;57.90;;;;;;5074633;28;20463;-75
2021/06/06 06:44:45;;;;;;;12.82;3.88;;;16.30;58.10;;;;;;5074621;28;20021;-76
2021/06/06 06:47:11;;;;;;;25.80;5.97;;;16.50;57.90;;;;;;5074575;28;20460;-76
2021/06/06 06:49:38;;;;;;;15.77;3.88;;;16.40;57.80;;;;;;5074540;28;20077;-75
2021/06/06 06:52:05;;;;;;;25.45;5.20;;;16.30;57.30;;;;;;5074600;28;20017;-75
2021/06/06 06:54:32;;;;;;;27.65;5.60;;;16.30;57.90;;;;;;5056960;28;20050;-75
2021/06/06 06:56:58;;;;;;;17.35;4.00;;;16.30;58.40;;;;;;5074659;28;20430;-76
2021/06/06 06:59:28;;;;;;;20.58;4.80;;;16.50;58.40;;;;;;5074640;28;20051;-75
2021/06/06 07:01:57;;;;;;;15.02;3.83;;;16.30;57.50;;;;;;5073550;28;20020;-75
2021/06/06 07:04:24;;;;;;;16.05;4.38;;;16.50;58.40;;;;;;5036382;28;20047;-76
2021/06/06 07:06:52;;;;;;;23.50;4.32;;;16.40;58.20;;;;;;5054312;28;20051;-76
2021/06/06 07:09:19;;;;;;;11.68;4.22;;;16.40;58.00;;;;;;5054450;28;20372;-75
2021/06/06 07:11:46;;;;;;;19.38;4.38;;;16.30;58.40;;;;;;5053438;28;20032;-75
2021/06/06 07:14:12;;;;;;;20.08;3.80;;;16.30;58.10;;;;;;5054238;28;20334;-76
2021/06/06 07:16:39;;;;;;;20.63;3.47;;;16.10;57.90;;;;;;5054474;28;20082;-76
2021/06/06 07:19:06;;;;;;;16.77;4.38;;;16.20;58.30;;;;;;5054480;28;20421;-76
2021/06/06 07:21:34;;;;;;;20.67;4.35;;;16.10;58.50;;;;;;5054314;28;20116;-75
2021/06/06 07:24:00;;;;;;;19.35;5.75;;;16.10;58.60;;;;;;5066912;28;20043;-76
2021/06/06 07:26:37;;;;;;;23.77;4.47;;;16.30;59.10;;;;;;5074432;28;20024;-76
2021/06/06 07:29:09;;;;;;;31.38;4.57;;;16.20;58.30;;;;;;5079328;28;20060;-76
2021/06/06 07:31:36;;;;;;;21.52;5.07;;;16.20;59.20;;;;;;5057774;28;20016;-76
2021/06/06 07:34:03;;;;;;;28.33;6.50;;;16.30;59.50;;;;;;5074281;28;20445;-76
2021/06/06 07:36:30;;;;;;;23.75;5.60;;;16.20;59.00;;;;;;5076617;28;20025;-76
2021/06/06 07:38:57;;;;;;;17.25;4.30;;;16.20;58.60;;;;;;5068417;28;20530;-76
2021/06/06 07:41:24;;;;;;;14.88;3.05;;;16.10;59.00;;;;;;5066495;28;20112;-76
2021/06/06 07:43:51;;;;;;;20.95;5.35;;;16.00;58.60;;;;;;5063432;28;20031;-76
2021/06/06 07:46:18;;;;;;;18.08;2.97;;;16.00;59.20;;;;;;5077849;28;20059;-76
2021/06/06 07:48:45;;;;;;;25.13;4.28;;;16.00;59.30;;;;;;5074467;28;20484;-77
2021/06/06 07:51:11;;;;;;;16.77;4.03;;;16.10;59.40;;;;;;5074572;28;20049;-76
2021/06/06 07:53:38;;;;;;;17.17;3.83;;;16.00;59.00;;;;;;5074204;28;20408;-78
2021/06/06 07:56:05;;;;;;;30.90;6.93;;;15.90;59.40;;;;;;5074223;28;20025;-76
2021/06/06 07:58:37;;;;;;;17.15;3.40;;;16.10;59.20;;;;;;5074095;28;20494;-76
2021/06/06 08:01:05;;;;;;;23.75;4.93;;;16.00;59.70;;;;;;5074096;28;20059;-76
2021/06/06 08:03:32;;;;;;;22.05;4.10;;;16.10;59.70;;;;;;5073977;28;20071;-75
2021/06/06 08:06:00;;;;;;;16.80;3.95;;;16.00;59.20;;;;;;5073891;28;20444;-76
2021/06/06 08:08:27;;;;;;;23.05;5.82;;;16.00;59.90;;;;;;5074088;28;20032;-75
2021/06/06 08:10:57;;;;;;;16.73;4.50;;;16.00;60.20;;;;;;5056350;28;20467;-76
2021/06/06 08:13:23;;;;;;;26.48;4.50;;;16.00;60.00;;;;;;5075306;28;20031;-75
2021/06/06 08:15:51;;;;;;;14.20;4.75;;;16.00;60.10;;;;;;5077576;28;20028;-76
2021/06/06 08:18:24;;;;;;;21.58;4.30;;;15.90;60.10;;;;;;5068420;28;20039;-76
2021/06/06 08:20:58;;;;;;;22.63;3.72;;;15.90;60.50;;;;;;5057588;28;20044;-76
2021/06/06 08:23:24;;;;;;;25.27;5.68;;;15.90;60.60;;;;;;5057340;28;20074;-76
2021/06/06 08:25:52;;;;;;;21.05;4.93;;;15.90;60.40;;;;;;5057282;28;20021;-75
2021/06/06 08:28:19;;;;;;;20.08;5.15;;;15.80;60.40;;;;;;5039526;28;20121;-75
2021/06/06 08:30:51;;;;;;;20.80;5.43;;;15.90;60.60;;;;;;5057298;28;20043;-76
2021/06/06 08:33:23;;;;;;;12.63;4.00;;;15.90;60.80;;;;;;5039423;28;20458;-75
2021/06/06 08:35:51;;;;;;;31.60;6.23;;;15.80;60.50;;;;;;5057168;28;20021;-76
2021/06/06 08:38:18;;;;;;;20.33;6.28;;;15.80;60.90;;;;;;5057114;28;20063;-76
2021/06/06 08:41:00;;;;;;;23.15;4.43;;;15.80;61.00;;;;;;5056966;28;20102;-75
2021/06/06 08:43:53;;;;;;;26.23;4.15;;;15.70;60.80;;;;;;5039471;28;20029;-76
2021/06/06 08:46:22;;;;;;;20.27;8.10;;;15.70;60.20;;;;;;5056490;28;20075;-75
2021/06/06 08:48:50;;;;;;;14.98;4.72;;;15.70;60.70;;;;;;5056740;28;20428;-75
2021/06/06 08:51:39;;;;;;;19.17;3.95;;;15.80;60.60;;;;;;5039488;28;20033;-75
2021/06/06 08:54:30;;;;;;;16.70;5.20;;;15.70;60.20;;;;;;5056645;28;20472;-76
2021/06/06 08:57:09;;;;;;;24.20;4.05;;;15.80;60.10;;;;;;5057211;28;20045;-75
2021/06/06 08:59:42;;;;;;;24.42;5.13;;;15.70;59.80;;;;;;5039145;28;20043;-75
2021/06/06 09:02:27;;;;;;;24.00;5.05;;;15.60;60.00;;;;;;5056505;28;20017;-75
2021/06/06 09:04:54;;;;;;;39.08;5.25;;;15.70;60.20;;;;;;5056770;28;20033;-75
2021/06/06 09:07:42;;;;;;;17.55;3.25;;;15.80;59.80;;;;;;5056900;28;20029;-75
2021/06/06 09:10:15;;;;;;;23.13;5.43;;;15.70;60.00;;;;;;5064235;28;20371;-75
2021/06/06 09:12:41;;;;;;;24.75;6.20;;;15.70;60.20;;;;;;5056445;28;20021;-76
2021/06/06 09:15:11;;;;;;;26.45;5.60;;;15.70;60.20;;;;;;5038610;28;20527;-75
2021/06/06 09:18:01;;;;;;;20.88;3.70;;;15.70;60.00;;;;;;5038729;28;20029;-76
2021/06/06 09:20:36;;;;;;;12.93;3.65;;;15.60;60.00;;;;;;5056096;28;20029;-75
2021/06/06 09:23:29;;;;;;;31.67;5.93;;;15.70;60.20;;;;;;5058928;28;20045;-76
2021/06/06 09:26:09;;;;;;;18.75;5.10;;;15.50;60.20;;;;;;5055256;28;20033;-76
2021/06/06 09:28:41;;;;;;;15.65;3.13;;;15.40;60.40;;;;;;5056145;28;20464;-76
2021/06/06 09:31:12;;;;;;;15.50;3.15;;;15.50;60.80;;;;;;5040518;28;20028;-76
2021/06/06 09:33:47;;;;;;;13.27;4.35;;;15.40;60.60;;;;;;5056637;28;20365;-76
2021/06/06 09:36:19;;;;;;;22.63;4.70;;;15.60;60.20;;;;;;5056123;28;20080;-76
2021/06/06 09:38:47;;;;;;;31.85;6.05;;;15.50;60.10;;;;;;5055109;28;20029;-75
2021/06/06 09:41:33;;;;;;;17.75;4.05;;;15.70;60.20;;;;;;5038405;28;20411;-75
2021/06/06 09:44:14;;;;;;;30.85;5.05;;;15.50;60.00;;;;;;5056038;28;20029;-76
2021/06/06 09:46:50;;;;;;;20.75;5.93;;;15.60;60.30;;;;;;5055962;28;20083;-75
2021/06/06 09:49:27;;;;;;;25.98;5.85;;;15.50;60.00;;;;;;5055764;28;20040;-75
2021/06/06 09:51:56;;;;;;;21.33;4.13;;;15.60;60.50;;;;;;5055641;28;20021;-76
2021/06/06 09:54:32;;;;;;;10.32;4.40;;;15.40;60.50;;;;;;5055833;28;20020;-76
2021/06/06 09:57:14;;;;;;;32.22;5.03;;;15.50;60.70;;;;;;5055649;28;20028;-77
2021/06/06 09:59:41;;;;;;;16.75;4.55;;;15.50;60.50;;;;;;5055776;28;20033;-75
2021/06/06 10:02:13;;;;;;;18.05;3.97;;;15.60;60.50;;;;;;5055398;28;20021;-74
2021/06/06 10:04:44;;;;;;;;;;;15.60;60.80;;;;;;5056015;28;20028;-76
2021/06/06 10:07:27;;;;;;;22.58;4.72;;;15.70;60.50;;;;;;5055277;28;19923;-75
2021/06/06 10:09:57;;;;;;;19.65;3.90;;;15.60;60.40;;;;;;5055265;28;20390;-75
2021/06/06 10:12:39;;;;;;;21.73;7.13;;;15.60;60.50;;;;;;5055119;28;20104;-75
2021/06/06 10:15:33;;;;;;;17.80;3.80;;;15.60;60.90;;;;;;5055210;28;20013;-75
2021/06/06 10:18:09;;;;;;;18.52;4.53;;;15.60;60.90;;;;;;5054934;28;20025;-75
2021/06/06 10:20:39;;;;;;;11.80;5.18;;;15.60;60.90;;;;;;5055211;28;20091;-75
2021/06/06 10:23:27;;;;;;;17.55;3.90;;;15.50;61.00;;;;;;5055098;28;20021;-75
2021/06/06 10:26:10;;;;;;;16.63;4.65;;;15.40;60.90;;;;;;5054840;28;20021;-75
2021/06/06 10:28:49;;;;;;;25.00;5.22;;;15.50;61.40;;;;;;5037419;28;20028;-75
2021/06/06 10:31:34;;;;;;;28.08;5.65;;;15.50;61.40;;;;;;5037480;28;20025;-76
2021/06/06 10:34:10;;;;;;;22.63;4.90;;;15.40;61.30;;;;;;5054854;28;20150;-75
2021/06/06 10:36:38;;;;;;;17.45;4.60;;;15.50;61.40;;;;;;5054636;28;20104;-76
2021/06/06 10:39:14;;;;;;;20.60;3.85;;;15.40;61.70;;;;;;5054924;28;20025;-75
2021/06/06 10:41:57;;;;;;;18.50;4.45;;;15.40;61.10;;;;;;5063684;28;20360;-75
2021/06/06 10:44:44;;;;;;;18.27;4.28;;;15.40;61.10;;;;;;5056317;28;20035;-76
2021/06/06 10:47:16;;;;;;;16.10;3.42;;;15.20;61.40;;;;;;5074439;28;20032;-75
2021/06/06 10:49:57;;;;;;;37.78;6.00;;;15.40;61.20;;;;;;5056552;28;20356;-76
2021/06/06 10:52:34;;;;;;;22.50;4.00;;;15.40;61.30;;;;;;5074725;28;20020;-76
2021/06/06 10:55:28;;;;;;;12.75;3.95;;;15.40;61.20;;;;;;5077549;28;20111;-75
2021/06/06 10:57:55;;;;;;;18.40;5.50;;;15.20;61.10;;;;;;5076720;28;20122;-76
2021/06/06 11:00:40;;;;;;;17.90;5.28;;;15.30;61.60;;;;;;5094695;28;20031;-75
2021/06/06 11:03:12;;;;;;;32.50;6.07;;;15.30;61.20;;;;;;5094886;28;20090;-75
2021/06/06 11:05:47;;;;;;;19.70;4.63;;;15.30;61.70;;;;;;5094781;28;20333;-75
2021/06/06 11:08:18;;;;;;;20.10;3.33;;;15.10;61.50;;;;;;5094588;28;20020;-76
2021/06/06 11:10:45;;;;;;;24.17;4.40;;;15.10;62.00;;;;;;5094875;28;20031;-75
2021/06/06 11:13:33;;;;;;;26.48;4.57;;;15.30;62.10;;;;;;5094765;28;20023;-75
2021/06/06 11:16:28;;;;;;;14.43;4.68;;;15.20;61.70;;;;;;5076211;28;20074;-76
2021/06/06 11:19:21;;;;;;;26.73;7.57;;;15.10;61.70;;;;;;5076688;28;20054;-76
2021/06/06 11:22:09;;;;;;;23.60;5.00;;;15.00;62.00;;;;;;5094408;28;20410;-75
2021/06/06 11:24:42;;;;;;;16.17;5.55;;;15.10;62.30;;;;;;5094605;28;20027;-76
2021/06/06 11:27:11;;;;;;;20.67;5.10;;;15.10;62.30;;;;;;5094475;28;20020;-76
2021/06/06 11:29:58;;;;;;;31.15;8.93;;;15.10;62.20;;;;;;5076600;28;20028;-76
2021/06/06 11:32:59;;;;;;;20.85;5.70;;;15.00;62.10;;;;;;5094483;28;20095;-76
2021/06/06 11:35:34;;;;;;;25.85;4.25;;;15.00;62.50;;;;;;5089048;28;20036;-75
2021/06/06 11:38:42;;;;;;;16.40;4.03;;;15.00;62.60;;;;;;5094192;28;20028;-76
2021/06/06 11:41:11;;;;;;;21.88;4.68;;;14.90;62.60;;;;;;5074477;28;20036;-75
2021/06/06 11:44:15;;;;;;;15.82;4.50;;;14.90;62.40;;;;;;5094368;28;20039;-76
2021/06/06 11:47:04;;;;;;;30.20;4.60;;;15.00;62.50;;;;;;5043339;28;20044;-75
2021/06/06 11:49:50;;;;;;;24.85;6.85;;;14.90;62.60;;;;;;5082683;28;20356;-76
2021/06/06 11:52:42;;;;;;;16.95;4.43;;;15.00;62.70;;;;;;5082918;28;20029;-76
2021/06/06 11:55:29;;;;;;;22.13;6.20;;;14.80;62.30;;;;;;5077335;28;20020;-77
2021/06/06 11:58:19;;;;;;;25.98;6.75;;;14.90;62.60;;;;;;5057428;28;20064;-76
2021/06/06 12:00:57;;;;;;;27.27;6.72;;;15.00;63.10;;;;;;5040233;28;20036;-76
2021/06/06 12:03:29;;;;;;;34.33;5.55;;;15.10;62.40;;;;;;5057733;28;20044;-76
2021/06/06 12:06:06;;;;;;;21.42;4.75;;;15.10;63.00;;;;;;5057674;28;20020;-76
2021/06/06 12:08:40;;;;;;;31.92;6.13;;;15.00;62.90;;;;;;5057453;28;20456;-76
2021/06/06 12:11:20;;;;;;;27.33;7.18;;;15.10;62.90;;;;;;5057936;28;20029;-76
2021/06/06 12:13:54;;;;;;;26.25;7.82;;;15.10;62.90;;;;;;5057734;28;20032;-75
2021/06/06 12:16:26;;;;;;;18.85;4.90;;;14.90;63.00;;;;;;5056509;28;20021;-76
2021/06/06 12:19:11;;;;;;;32.03;3.83;;;15.00;63.30;;;;;;5053192;28;20036;-75
2021/06/06 12:21:41;;;;;;;29.75;4.53;;;14.90;63.10;;;;;;5077370;28;20028;-75
2021/06/06 12:24:24;;;;;;;16.98;4.18;;;15.00;62.80;;;;;;5059540;28;20115;-75
2021/06/06 12:27:00;;;;;;;;;;;14.90;63.00;;;;;;5077668;28;20075;-75
2021/06/06 12:29:34;;;;;;;16.08;5.22;;;14.90;63.10;;;;;;5077132;28;19943;-75
2021/06/06 12:32:14;;;;;;;18.38;3.20;;;14.80;63.40;;;;;;5057162;28;20017;-75
2021/06/06 12:34:43;;;;;;;22.23;4.95;;;14.70;63.30;;;;;;5057121;28;20357;-75
2021/06/06 12:37:20;;;;;;;20.80;4.43;;;14.80;63.60;;;;;;5039506;28;20095;-75
2021/06/06 12:39:51;;;;;;;26.83;4.07;;;14.70;63.60;;;;;;5057059;28;20106;-75
2021/06/06 12:42:18;;;;;;;18.02;5.25;;;14.80;64.00;;;;;;5057027;28;20372;-76
2021/06/06 12:44:48;;;;;;;23.80;4.78;;;14.80;63.20;;;;;;5056964;28;20108;-75
2021/06/06 12:47:34;;;;;;;31.48;5.65;;;14.60;63.70;;;;;;5056806;28;20021;-75
2021/06/06 12:50:08;;;;;;;14.13;4.43;;;14.70;63.80;;;;;;5056722;28;20029;-76
2021/06/06 12:52:59;;;;;;;38.65;6.00;;;14.70;63.70;;;;;;5056987;28;20094;-76
2021/06/06 12:55:39;;;;;;;36.17;5.20;;;14.70;63.60;;;;;;5057459;28;20024;-75
2021/06/06 12:58:10;;;;;;;21.67;5.60;;;14.70;63.30;;;;;;5076562;28;20560;-75
2021/06/06 13:00:51;;;;;;;19.08;3.72;;;14.80;63.60;;;;;;5057968;28;20054;-76
2021/06/06 13:03:32;;;;;;;19.35;4.03;;;14.80;63.40;;;;;;5075677;28;20067;-75
2021/06/06 13:06:14;;;;;;;15.32;3.53;;;14.70;63.40;;;;;;5076600;28;20025;-76
2021/06/06 13:08:41;;;;;;;19.05;5.20;;;14.70;63.40;;;;;;5076335;28;20359;-74